Time;durP1;ratioP1;P1;durP2;ratioP2;P2;SDS_P1;SDS_P2;PMS_P1;PMS_P2;Temp;Humidity;BMP_temperature;BMP_pressure;BME280_temperature;BME280_humidity;BME280_pressure;Samples;Min_cycle;Max_cycle;Signal;HPM_P1;HPM_P2
2021/04/26 00:00:23;;;;;;;9.50;5.10;;;;;;;9.33;50.96;100336.02;125661;1099;104309;-77
2021/04/26 00:03:12;;;;;;;10.60;4.73;;;;;;;9.29;51.41;100343.70;125638;1099;104173;-77
2021/04/26 00:05:41;;;;;;;10.23;4.97;;;;;;;9.29;50.91;100336.73;125660;1099;104175;-77
2021/04/26 00:08:10;;;;;;;12.00;4.80;;;;;;;9.28;50.84;100334.93;125667;1099;104175;-76
2021/04/26 00:10:40;;;;;;;8.80;4.63;;;;;;;9.27;51.60;100330.55;125579;1099;104258;-77
2021/04/26 00:13:09;;;;;;;10.43;5.23;;;;;;;9.26;51.26;100333.11;125664;1099;104300;-77
2021/04/26 00:15:38;;;;;;;13.37;5.27;;;;;;;9.22;51.70;100333.81;125646;1099;104175;-77
2021/04/26 00:18:07;;;;;;;11.33;4.93;;;;;;;9.20;51.03;100352.08;125633;1099;104179;-76
2021/04/26 00:20:36;;;;;;;9.90;4.70;;;;;;;9.20;51.31;100345.96;125674;1099;104418;-77
2021/04/26 00:23:04;;;;;;;11.57;4.67;;;;;;;9.22;51.67;100347.78;125670;1099;104297;-77
2021/04/26 00:25:34;;;;;;;14.90;5.13;;;;;;;9.23;51.50;100344.34;125632;1098;104223;-76
2021/04/26 00:28:04;;;;;;;9.63;5.10;;;;;;;9.25;51.66;100341.78;125614;1099;104162;-76
2021/04/26 00:30:34;;;;;;;8.73;4.73;;;;;;;9.27;51.91;100338.41;125647;1099;104172;-77
2021/04/26 00:33:02;;;;;;;10.60;4.90;;;;;;;9.27;51.55;100345.34;125649;1098;104297;-77
2021/04/26 00:35:31;;;;;;;10.00;4.90;;;;;;;9.29;51.83;100333.22;125645;1099;104270;-76
2021/04/26 00:38:00;;;;;;;10.60;5.30;;;;;;;9.31;51.52;100337.66;125633;1099;104302;-76
2021/04/26 00:40:28;;;;;;;10.90;5.17;;;;;;;9.32;51.80;100330.72;125653;1099;104242;-77
2021/04/26 00:42:57;;;;;;;12.43;4.93;;;;;;;9.31;51.52;100332.43;125639;1099;104169;-76
2021/04/26 00:45:27;;;;;;;9.45;4.15;;;;;;;9.32;51.79;100331.61;125655;1099;104300;-77
2021/04/26 00:47:57;;;;;;;12.33;5.30;;;;;;;9.30;51.58;100325.43;125630;1098;104179;-77
2021/04/26 00:50:27;;;;;;;11.10;4.83;;;;;;;9.28;52.00;100329.69;125639;1099;104246;-76
2021/04/26 00:52:57;;;;;;;12.57;5.03;;;;;;;9.29;52.47;100333.22;125642;1099;104342;-77
2021/04/26 00:55:29;;;;;;;13.37;5.00;;;;;;;9.28;51.92;100331.43;125621;1099;104197;-77
2021/04/26 00:57:58;;;;;;;11.57;5.40;;;;;;;9.26;52.10;100331.37;125666;1099;104689;-76
2021/04/26 01:00:29;;;;;;;12.47;5.50;;;;;;;9.24;51.83;100339.98;125656;1099;104239;-77
2021/04/26 01:02:59;;;;;;;15.20;5.07;;;;;;;9.25;51.82;100332.19;125681;1099;104172;-77
2021/04/26 01:05:30;;;;;;;11.33;5.10;;;;;;;9.26;51.86;100328.75;125590;1099;104350;-77
2021/04/26 01:08:00;;;;;;;12.17;5.40;;;;;;;9.28;52.18;100321.84;125661;1099;104207;-77
2021/04/26 01:10:46;;;;;;;13.40;4.90;;;;;;;9.29;51.95;100322.75;125646;1099;104220;-77
2021/04/26 01:13:33;;;;;;;10.67;5.07;;;;;;;9.31;52.40;100326.31;125619;1099;104184;-77
2021/04/26 01:16:13;;;;;;;10.23;5.03;;;;;;;9.33;52.52;100328.16;125599;1099;104300;-77
2021/04/26 01:18:52;;;;;;;14.07;5.83;;;;;;;9.36;52.05;100335.22;125599;1099;104179;-77
2021/04/26 01:21:48;;;;;;;11.50;5.40;;;;;;;9.37;52.64;100329.16;125684;1099;104341;-77
2021/04/26 01:24:43;;;;;;;12.37;5.30;;;;;;;9.35;52.01;100329.10;125639;1099;104583;-77
2021/04/26 01:27:23;;;;;;;12.33;5.42;;;;;;;9.34;52.42;100326.42;125634;1099;104238;-77
2021/04/26 01:30:09;;;;;;;14.13;5.80;;;;;;;9.33;52.16;100322.92;125653;1098;104207;-77
2021/04/26 01:32:56;;;;;;;12.57;5.70;;;;;;;9.34;52.43;100315.95;125575;1099;104175;-77
2021/04/26 01:35:28;;;;;;;13.23;5.53;;;;;;;9.33;52.26;100325.55;125669;1099;104300;-77
2021/04/26 01:38:02;;;;;;;13.60;5.80;;;;;;;9.32;52.62;100317.63;125729;1099;104239;-77
2021/04/26 01:40:32;;;;;;;14.33;5.50;;;;;;;9.32;52.57;100318.52;125654;1099;107825;-77
2021/04/26 01:43:03;;;;;;;10.37;5.57;;;;;;;9.31;52.45;100326.31;125650;1099;104185;-77
2021/04/26 01:45:32;;;;;;;13.33;6.03;;;;;;;9.30;53.14;100320.19;125625;1099;104307;-76
2021/04/26 01:48:01;;;;;;;14.90;6.40;;;;;;;9.27;52.55;100332.25;125677;1099;104184;-77
2021/04/26 01:50:34;;;;;;;16.60;6.40;;;;;;;9.26;52.64;100340.97;125612;1099;104172;-77
2021/04/26 01:53:03;;;;;;;15.97;6.70;;;;;;;9.28;52.75;100344.52;125675;1099;104197;-77
2021/04/26 01:55:33;;;;;;;14.43;6.43;;;;;;;9.29;52.97;100336.73;125669;1099;104369;-77
2021/04/26 01:58:04;;;;;;;12.53;5.73;;;;;;;9.32;52.98;100341.20;125630;1099;105453;-77
2021/04/26 02:00:38;;;;;;;14.33;6.10;;;;;;;9.37;53.51;100343.99;125655;1099;104165;-77
2021/04/26 02:03:13;;;;;;;13.90;7.00;;;;;;;9.39;53.45;100350.17;125667;1099;104277;-76
2021/04/26 02:05:57;;;;;;;17.42;6.62;;;;;;;9.34;53.08;100358.73;125667;1099;104172;-76
2021/04/26 02:08:29;;;;;;;14.73;7.80;;;;;;;9.32;53.44;100349.94;125679;1099;102972;-76
2021/04/26 02:10:59;;;;;;;18.63;8.00;;;;;;;9.24;54.53;100359.23;125620;1099;104300;-76
2021/04/26 02:13:29;;;;;;;19.90;9.83;;;;;;;9.13;56.26;100379.75;125666;1099;104169;-76
2021/04/26 02:16:02;;;;;;;20.05;10.03;;;;;;;9.00;54.75;100372.23;125628;1098;104297;-76
2021/04/26 02:18:34;;;;;;;19.40;9.27;;;;;;;8.93;56.01;100371.10;125630;1099;104156;-76
2021/04/26 02:21:07;;;;;;;22.37;10.70;;;;;;;8.85;56.07;100376.84;125567;1099;105031;-76
2021/04/26 02:23:38;;;;;;;18.67;9.90;;;;;;;8.76;56.01;100378.27;125541;1099;104293;-76
2021/04/26 02:26:08;;;;;;;20.23;9.90;;;;;;;8.70;55.92;100371.90;125637;1099;104302;-76
2021/04/26 02:28:42;;;;;;;21.62;10.68;;;;;;;8.66;56.01;100365.63;125630;1099;104200;-76
2021/04/26 02:31:16;;;;;;;21.10;10.87;;;;;;;8.64;55.72;100356.83;125552;1099;104328;-77
2021/04/26 02:33:52;;;;;;;22.45;10.95;;;;;;;8.58;56.52;100364.42;125647;1099;104239;-76
2021/04/26 02:36:32;;;;;;;18.30;9.20;;;;;;;8.53;57.25;100374.69;125528;1099;104230;-76
2021/04/26 02:39:06;;;;;;;20.70;10.00;;;;;;;8.45;56.49;100373.48;125649;1099;104462;-77
2021/04/26 02:41:40;;;;;;;20.60;10.07;;;;;;;8.40;56.95;100367.15;125621;1099;104271;-76
2021/04/26 02:44:19;;;;;;;20.67;10.10;;;;;;;8.31;57.15;100377.21;125699;1099;104191;-76
2021/04/26 02:46:49;;;;;;;19.03;10.73;;;;;;;8.25;57.17;100389.17;125624;1099;104281;-77
2021/04/26 02:49:19;;;;;;;22.20;10.67;;;;;;;8.21;57.00;100399.42;125610;1099;104338;-77
2021/04/26 02:51:50;;;;;;;21.20;10.20;;;;;;;8.17;57.00;100421.94;125642;1099;104204;-76
2021/04/26 02:54:21;;;;;;;17.83;9.47;;;;;;;8.09;57.62;100418.09;125685;1098;104181;-76
2021/04/26 02:56:52;;;;;;;16.17;8.43;;;;;;;8.04;57.35;100432.66;125660;1099;104631;-76
2021/04/26 02:59:23;;;;;;;17.17;8.63;;;;;;;8.00;57.49;100439.47;125675;1099;104386;-76
2021/04/26 03:01:56;;;;;;;17.43;8.77;;;;;;;7.97;57.27;100441.06;125614;1099;104243;-77
2021/04/26 03:04:35;;;;;;;19.53;8.67;;;;;;;7.93;57.93;100440.01;125667;1099;104168;-77
2021/04/26 03:07:05;;;;;;;20.77;8.53;;;;;;;7.90;58.23;100447.74;125668;1099;104165;-76
2021/04/26 03:09:47;;;;;;;14.80;7.80;;;;;;;7.84;58.43;100450.95;125617;1099;104163;-77
2021/04/26 03:12:17;;;;;;;14.13;7.40;;;;;;;7.81;57.77;100458.66;125647;1099;104291;-78
2021/04/26 03:14:48;;;;;;;15.90;6.93;;;;;;;7.79;58.10;100457.70;125615;1099;104321;-77
2021/04/26 03:17:18;;;;;;;14.13;6.80;;;;;;;7.78;57.85;100463.73;125683;1099;104158;-77
2021/04/26 03:19:53;;;;;;;15.20;6.63;;;;;;;7.76;57.75;100460.17;125669;1099;104220;-76
2021/04/26 03:22:23;;;;;;;14.87;6.87;;;;;;;7.77;57.83;100455.83;125655;1099;104162;-77
2021/04/26 03:24:52;;;;;;;9.87;5.40;;;;;;;7.75;58.14;100463.59;125696;1099;104287;-76
2021/04/26 03:27:23;;;;;;;10.67;5.00;;;;;;;7.70;58.12;100475.55;125670;1099;104290;-77
2021/04/26 03:29:54;;;;;;;12.13;5.10;;;;;;;7.63;57.79;100473.47;125654;1099;104242;-76
2021/04/26 03:32:28;;;;;;;10.80;5.00;;;;;;;7.58;57.84;100474.97;125664;1099;104172;-78
2021/04/26 03:35:07;;;;;;;9.80;4.53;;;;;;;7.55;58.18;100480.94;125667;1099;104201;-77
2021/04/26 03:37:41;;;;;;;6.80;4.20;;;;;;;7.56;57.87;100481.01;125628;1099;104172;-77
2021/04/26 03:40:11;;;;;;;5.97;4.00;;;;;;;7.55;58.12;100492.27;125604;1099;104224;-77
2021/04/26 03:42:41;;;;;;;8.70;4.30;;;;;;;7.52;58.25;100502.56;125651;1099;104198;-77
2021/04/26 03:45:13;;;;;;;7.90;3.90;;;;;;;7.48;57.93;100492.81;125621;1099;104582;-77
2021/04/26 03:48:01;;;;;;;6.00;3.93;;;;;;;7.47;57.78;100497.96;125658;1097;104211;-76
2021/04/26 03:50:46;;;;;;;6.35;3.35;;;;;;;7.41;58.11;100487.22;125683;1097;104252;-77
2021/04/26 03:53:35;;;;;;;3.77;2.90;;;;;;;7.40;58.30;100494.13;125592;1099;106992;-77
2021/04/26 03:56:16;;;;;;;5.27;3.40;;;;;;;7.41;58.19;100500.27;125667;1099;104220;-77
2021/04/26 03:58:45;;;;;;;6.83;3.00;;;;;;;7.44;58.19;100505.64;125641;1099;104191;-77
2021/04/26 04:01:16;;;;;;;4.67;3.10;;;;;;;7.38;58.43;100498.40;125634;1099;104217;-78
2021/04/26 04:03:45;;;;;;;5.10;2.80;;;;;;;7.35;58.43;100498.25;125624;1098;104172;-77
2021/04/26 04:06:16;;;;;;;6.40;3.10;;;;;;;7.30;58.27;100491.92;125638;1099;104178;-76
2021/04/26 04:08:56;;;;;;;3.97;2.93;;;;;;;7.32;58.42;100500.70;125699;1099;104236;-77
2021/04/26 04:11:37;;;;;;;4.73;2.90;;;;;;;7.30;58.42;100505.85;125684;1099;104178;-76
2021/04/26 04:14:26;;;;;;;5.33;2.70;;;;;;;7.32;58.48;100504.23;125666;1099;104185;-76
2021/04/26 04:16:59;;;;;;;;;;;;;;;7.38;58.57;100509.72;125713;1100;104242;-76
2021/04/26 04:19:29;;;;;;;4.60;2.80;;;;;;;7.40;58.18;100506.30;125623;1098;104364;-76
2021/04/26 04:21:58;;;;;;;7.30;3.10;;;;;;;7.38;58.00;100516.67;125651;1098;104732;-76
2021/04/26 04:24:27;;;;;;;5.73;3.10;;;;;;;7.38;58.14;100509.72;125631;1099;104239;-76
2021/04/26 04:26:56;;;;;;;5.30;3.00;;;;;;;7.38;58.30;100503.62;125673;1099;104245;-76
2021/04/26 04:29:25;;;;;;;5.97;3.20;;;;;;;7.36;58.46;100513.98;125632;1099;104175;-75
2021/04/26 04:32:01;;;;;;;4.10;2.90;;;;;;;7.39;58.40;100521.09;125604;1099;104166;-76
2021/04/26 04:34:47;;;;;;;5.40;2.87;;;;;;;7.38;58.38;100524.50;125629;1098;104181;-76
2021/04/26 04:37:27;;;;;;;6.30;3.13;;;;;;;7.38;58.20;100535.83;125648;1099;104219;-76
2021/04/26 04:40:08;;;;;;;13.07;3.47;;;;;;;7.49;58.73;100540.70;125671;1099;104657;-76
2021/04/26 04:42:46;;;;;;;7.40;3.30;;;;;;;7.55;58.55;100544.48;125621;1099;104163;-76
2021/04/26 04:45:19;;;;;;;8.73;3.10;;;;;;;7.57;58.11;100541.95;125644;1099;104163;-76
2021/04/26 04:48:08;;;;;;;6.67;3.20;;;;;;;7.61;58.46;100541.29;125630;1099;104191;-76
2021/04/26 04:50:46;;;;;;;6.67;3.30;;;;;;;7.61;58.43;100549.13;125645;1099;104300;-76
2021/04/26 04:53:15;;;;;;;4.97;3.30;;;;;;;7.63;58.29;100549.20;125632;1099;104178;-76
2021/04/26 04:55:44;;;;;;;6.80;3.03;;;;;;;7.69;58.11;100550.38;125616;1099;104181;-76
2021/04/26 04:58:13;;;;;;;6.40;3.33;;;;;;;7.75;58.02;100547.17;125643;1098;104315;-76
2021/04/26 05:00:43;;;;;;;6.43;3.13;;;;;;;7.78;58.08;100549.94;125638;1099;104178;-76
2021/04/26 05:03:26;;;;;;;6.60;3.45;;;;;;;7.84;58.33;100555.45;125614;1099;104213;-77
2021/04/26 05:06:07;;;;;;;6.93;3.40;;;;;;;7.97;58.45;100556.04;125677;1099;104166;-76
2021/04/26 05:08:47;;;;;;;6.77;3.60;;;;;;;8.02;58.29;100550.18;125644;1099;104140;-74
2021/04/26 05:11:36;;;;;;;7.13;3.40;;;;;;;8.10;58.63;100553.16;125621;1099;104329;-74
2021/04/26 05:14:25;;;;;;;6.23;3.20;;;;;;;8.18;58.65;100546.58;125595;1099;104235;-77
2021/04/26 05:16:56;;;;;;;8.00;3.23;;;;;;;8.26;58.54;100553.05;125657;1099;104287;-75
2021/04/26 05:19:25;;;;;;;6.53;3.27;;;;;;;8.44;58.52;100552.13;125670;1099;104213;-75
2021/04/26 05:21:53;;;;;;;6.23;3.20;;;;;;;8.48;58.32;100554.06;125583;1099;104336;-75
2021/04/26 05:24:22;;;;;;;7.90;3.30;;;;;;;8.56;58.35;100551.79;125579;1099;104293;-75
2021/04/26 05:26:52;;;;;;;6.30;3.20;;;;;;;8.68;58.08;100556.66;125636;1098;104181;-74
2021/04/26 05:29:21;;;;;;;4.90;2.90;;;;;;;8.80;58.51;100557.19;125644;1099;104303;-75
2021/04/26 05:31:50;;;;;;;6.73;3.40;;;;;;;8.85;57.96;100557.39;125633;1099;104230;-74
2021/04/26 05:34:19;;;;;;;5.73;2.90;;;;;;;8.90;58.09;100564.62;125591;1099;104281;-75
2021/04/26 05:36:52;;;;;;;5.93;3.47;;;;;;;8.98;58.21;100555.37;125543;1099;104242;-75
2021/04/26 05:39:21;;;;;;;6.30;3.47;;;;;;;9.02;58.31;100553.77;125613;1099;104185;-77
2021/04/26 05:41:51;;;;;;;5.77;3.13;;;;;;;9.00;57.59;100553.70;125563;1099;104233;-77
2021/04/26 05:44:21;;;;;;;7.57;3.73;;;;;;;8.94;57.96;100560.41;125653;1099;104182;-77
2021/04/26 05:47:01;;;;;;;5.37;3.30;;;;;;;8.89;57.92;100575.91;125650;1099;104181;-75
2021/04/26 05:49:31;;;;;;;6.97;3.40;;;;;;;8.83;58.29;100582.61;125561;1099;104172;-76
2021/04/26 05:52:01;;;;;;;6.50;3.43;;;;;;;8.87;58.27;100579.31;125611;1099;105771;-76
2021/04/26 05:54:32;;;;;;;4.03;3.10;;;;;;;8.92;57.72;100575.16;125579;1099;104235;-77
2021/04/26 05:57:02;;;;;;;5.43;3.07;;;;;;;8.89;57.76;100577.64;125652;1099;104207;-76
2021/04/26 05:59:31;;;;;;;7.30;3.47;;;;;;;8.91;57.83;100587.36;125642;1099;104729;-76
2021/04/26 06:02:00;;;;;;;5.67;2.80;;;;;;;8.88;58.21;100586.31;125589;1099;104248;-75
2021/04/26 06:04:28;;;;;;;6.20;3.50;;;;;;;8.88;57.73;100592.46;125615;1099;104181;-76
2021/04/26 06:06:58;;;;;;;6.83;3.10;;;;;;;8.86;57.75;100603.68;125630;1099;104227;-76
2021/04/26 06:09:27;;;;;;;3.80;3.00;;;;;;;8.73;57.58;100612.72;125683;1099;104219;-76
2021/04/26 06:11:57;;;;;;;7.03;3.40;;;;;;;8.63;58.01;100606.14;125607;1098;104360;-76
2021/04/26 06:14:28;;;;;;;8.90;3.73;;;;;;;8.66;57.82;100600.17;125650;1099;104166;-77
2021/04/26 06:17:03;;;;;;;6.53;3.57;;;;;;;8.66;57.81;100621.09;125838;1099;104306;-76
2021/04/26 06:19:37;;;;;;;7.87;3.43;;;;;;;8.69;57.87;100611.66;125536;1099;104236;-76
2021/04/26 06:22:06;;;;;;;7.33;3.10;;;;;;;8.71;58.17;100625.72;125618;1099;104268;-75
2021/04/26 06:24:35;;;;;;;5.03;3.10;;;;;;;8.70;57.77;100618.69;125652;1099;104184;-75
2021/04/26 06:27:06;;;;;;;6.00;3.10;;;;;;;8.72;58.12;100626.61;125594;1099;104232;-78
2021/04/26 06:29:55;;;;;;;7.03;3.53;;;;;;;8.65;57.70;100622.83;124938;1102;104341;-77
2021/04/26 06:33:18;;;;;;;5.70;2.90;;;;;;;8.54;57.70;100651.11;124678;1105;104367;-77
2021/04/26 06:36:02;;;;;;;4.57;3.40;;;;;;;8.40;58.05;100645.20;124733;1102;104250;-77
2021/04/26 06:38:32;;;;;;;6.20;3.43;;;;;;;8.40;57.70;100644.31;124642;1102;104258;-77
2021/04/26 06:44:10;;;;;;;4.65;2.80;;;;;;;8.31;57.75;100641.27;124649;1105;104602;-76
2021/04/26 06:46:49;;;;;;;11.10;3.23;;;;;;;8.27;58.05;100648.05;124658;1102;104223;-76
2021/04/26 06:49:20;;;;;;;7.87;3.27;;;;;;;8.30;58.25;100653.42;124954;1102;104579;-76
2021/04/26 06:52:02;;;;;;;8.77;3.33;;;;;;;8.30;57.92;100644.70;125656;1099;104178;-75
2021/04/26 06:54:36;;;;;;;6.80;3.63;;;;;;;8.26;57.74;100649.78;125658;1099;104169;-76
2021/04/26 06:57:07;;;;;;;6.43;3.97;;;;;;;8.25;58.19;100653.20;125643;1098;104178;-76
2021/04/26 06:59:36;;;;;;;9.33;3.90;;;;;;;8.19;57.86;100654.64;125811;1099;104169;-75
2021/04/26 07:02:05;;;;;;;6.87;3.43;;;;;;;8.10;58.27;100656.00;125616;1099;104194;-76
2021/04/26 07:04:34;;;;;;;10.10;3.80;;;;;;;8.08;57.99;100661.97;125584;1099;104261;-75
2021/04/26 07:07:03;;;;;;;6.23;3.57;;;;;;;8.04;58.20;100667.85;125592;1099;104333;-76
2021/04/26 07:09:36;;;;;;;9.57;3.70;;;;;;;8.04;57.71;100665.23;125640;1099;104203;-75
2021/04/26 07:12:05;;;;;;;6.63;3.23;;;;;;;8.04;58.61;100665.23;125769;1099;104175;-76
2021/04/26 07:14:34;;;;;;;6.80;3.77;;;;;;;8.04;58.43;100686.15;125628;1099;104181;-76
2021/04/26 07:17:03;;;;;;;6.13;3.10;;;;;;;8.03;58.43;100684.37;125597;1099;104162;-75
2021/04/26 07:19:32;;;;;;;6.13;3.50;;;;;;;7.98;58.29;100683.23;125599;1099;104174;-75
2021/04/26 07:22:01;;;;;;;6.77;3.10;;;;;;;7.96;58.19;100690.11;125610;1099;104297;-76
2021/04/26 07:24:33;;;;;;;7.23;3.80;;;;;;;7.91;58.56;100693.38;125729;1099;104232;-75
2021/04/26 07:27:04;;;;;;;8.90;3.80;;;;;;;7.87;58.29;100688.84;125595;1099;105470;-76
2021/04/26 07:29:34;;;;;;;8.97;3.40;;;;;;;7.79;58.62;100692.80;125777;1099;104326;-76
2021/04/26 07:32:07;;;;;;;12.07;3.60;;;;;;;7.79;58.59;100698.03;125625;1099;104182;-77
2021/04/26 07:34:35;;;;;;;6.93;3.73;;;;;;;7.83;58.50;100699.95;125715;1099;104175;-76
2021/04/26 07:37:05;;;;;;;4.37;2.93;;;;;;;7.89;58.28;100704.60;125622;1099;104166;-76
2021/04/26 07:39:34;;;;;;;4.23;2.80;;;;;;;7.85;58.42;100724.47;125724;1099;104169;-77
2021/04/26 07:42:04;;;;;;;3.57;2.50;;;;;;;7.82;58.20;100716.47;125646;1099;104291;-77
2021/04/26 07:44:57;;;;;;;3.60;2.70;;;;;;;7.80;58.80;100723.31;125652;1099;104293;-77
2021/04/26 07:47:26;;;;;;;4.23;2.60;;;;;;;7.85;58.32;100727.08;125056;1099;104184;-75
2021/04/26 07:49:55;;;;;;;4.30;2.80;;;;;;;7.87;58.34;100725.42;124923;1102;104165;-76
2021/04/26 07:52:24;;;;;;;4.30;2.50;;;;;;;7.91;58.33;100735.19;124916;1103;105413;-75
2021/04/26 07:54:56;;;;;;;3.70;2.60;;;;;;;7.88;58.36;100731.54;124868;1099;104172;-76
2021/04/26 07:57:33;;;;;;;4.43;2.60;;;;;;;7.91;58.26;100737.80;125008;1099;104335;-77
2021/04/26 08:00:06;;;;;;;2.87;2.40;;;;;;;7.91;58.43;100743.03;125623;1099;104347;-77
2021/04/26 08:02:38;;;;;;;3.33;2.73;;;;;;;7.89;58.30;100739.45;125669;1099;104162;-75
2021/04/26 08:05:08;;;;;;;4.80;2.90;;;;;;;7.96;58.58;100747.60;125083;1099;104182;-76
2021/04/26 08:07:40;;;;;;;5.70;2.90;;;;;;;8.14;58.59;100745.91;125211;1099;104217;-77
2021/04/26 08:10:10;;;;;;;4.67;2.67;;;;;;;8.46;58.18;100743.98;124888;1099;104306;-76
2021/04/26 08:12:40;;;;;;;5.77;3.20;;;;;;;8.95;58.37;100746.30;124927;1099;104201;-77
2021/04/26 08:15:11;;;;;;;8.93;3.40;;;;;;;9.35;58.42;100742.88;125018;1102;104370;-76
2021/04/26 08:17:43;;;;;;;5.63;3.10;;;;;;;9.65;58.56;100737.18;124887;1099;104156;-75
2021/04/26 08:20:15;;;;;;;6.73;3.30;;;;;;;9.94;57.76;100740.16;125574;1099;104341;-75
2021/04/26 08:22:44;;;;;;;4.40;2.93;;;;;;;9.99;57.71;100738.62;125649;1099;104339;-76
2021/04/26 08:25:15;;;;;;;5.77;2.93;;;;;;;9.95;57.23;100751.53;125573;1099;104155;-76
2021/04/26 08:27:50;;;;;;;8.45;3.60;;;;;;;9.88;57.82;100742.52;125557;1099;105589;-76
2021/04/26 08:30:43;;;;;;;13.37;3.70;;;;;;;9.77;57.48;100751.63;125750;1099;104274;-75
2021/04/26 08:33:17;;;;;;;11.47;3.70;;;;;;;9.67;57.75;100740.75;125986;1099;103387;-76
2021/04/26 08:35:50;;;;;;;6.60;3.47;;;;;;;9.63;57.21;100737.94;125662;1099;104159;-75
2021/04/26 08:38:19;;;;;;;7.37;3.07;;;;;;;9.63;57.18;100736.23;125574;1099;104197;-75
2021/04/26 08:40:52;;;;;;;6.00;3.10;;;;;;;9.67;57.60;100737.25;125626;1099;104172;-75
2021/04/26 08:43:29;;;;;;;8.90;3.50;;;;;;;9.78;57.06;100740.33;125670;1099;104233;-76
2021/04/26 08:46:12;;;;;;;6.77;3.43;;;;;;;9.92;57.51;100733.05;125669;1099;104198;-78
2021/04/26 08:48:59;;;;;;;5.63;3.13;;;;;;;10.10;57.51;100732.91;124846;1102;103422;-74
2021/04/26 08:51:31;;;;;;;6.27;2.83;;;;;;;10.26;56.75;100730.09;124986;1102;104163;-75
2021/04/26 08:54:02;;;;;;;4.13;2.90;;;;;;;10.52;57.04;100731.17;124920;1102;104370;-76
2021/04/26 08:56:31;;;;;;;5.20;3.27;;;;;;;10.89;57.02;100737.86;124953;1102;104169;-75
2021/04/26 08:59:00;;;;;;;3.60;2.30;;;;;;;11.07;56.30;100726.25;124975;1102;104899;-77
2021/04/26 09:01:30;;;;;;;4.67;2.50;;;;;;;11.11;56.05;100728.13;124863;1102;104319;-75
2021/04/26 09:04:51;;;;;;;2.97;2.60;;;;;;;11.04;55.94;100728.77;124944;1102;104306;-76
2021/04/26 09:07:47;;;;;;;3.57;2.40;;;;;;;10.90;55.48;100730.87;125666;1099;104191;-74
2021/04/26 09:10:25;;;;;;;7.07;2.50;;;;;;;10.86;55.35;100736.83;125731;1098;104172;-74
2021/04/26 09:16:07;;;;;;;4.37;2.60;;;;;;;10.91;54.57;100727.42;125389;1099;104317;-75
2021/04/26 09:18:58;;;;;;;4.00;2.67;;;;;;;11.04;55.62;100724.39;125727;1099;104248;-77
2021/04/26 09:21:31;;;;;;;4.77;2.57;;;;;;;11.29;54.84;100743.70;124926;1102;104344;-75
2021/04/26 09:24:16;;;;;;;3.30;2.70;;;;;;;11.34;54.41;100752.63;124941;1099;104335;-74
2021/04/26 09:26:49;;;;;;;4.00;2.53;;;;;;;11.43;54.66;100750.33;124944;1099;104299;-75
2021/04/26 09:29:23;;;;;;;3.57;2.70;;;;;;;11.53;54.51;100740.16;124921;1099;104229;-75
2021/04/26 09:32:08;;;;;;;3.20;2.30;;;;;;;11.41;53.57;100746.77;124904;1099;104338;-75
2021/04/26 09:34:41;;;;;;;6.33;2.90;;;;;;;11.17;54.02;100752.00;124991;1099;104181;-78
2021/04/26 09:37:22;;;;;;;4.20;2.50;;;;;;;11.03;53.86;100746.27;124954;1099;104459;-75
2021/04/26 09:40:05;;;;;;;8.40;2.27;;;;;;;11.07;53.94;100753.40;125026;1099;104423;-77
2021/04/26 09:42:41;;;;;;;3.80;2.50;;;;;;;11.30;53.97;100751.63;125526;1099;104353;-75
2021/04/26 09:45:23;;;;;;;4.87;2.50;;;;;;;11.55;53.28;100752.52;125534;1099;104360;-76
2021/04/26 09:48:10;;;;;;;3.50;2.33;;;;;;;11.71;52.95;100743.44;125553;1099;104404;-76
2021/04/26 09:50:56;;;;;;;5.60;2.43;;;;;;;12.01;52.85;100734.84;125840;1099;105685;-78
2021/04/26 09:53:32;;;;;;;4.07;2.70;;;;;;;12.04;52.83;100742.83;125607;1099;104237;-78
2021/04/26 09:56:12;;;;;;;7.53;2.70;;;;;;;12.00;52.47;100746.22;125766;1099;104185;-77
2021/04/26 09:58:44;;;;;;;4.87;2.73;;;;;;;11.92;52.44;100738.08;125578;1099;104672;-77
2021/04/26 10:01:14;;;;;;;4.07;2.27;;;;;;;11.79;51.43;100743.70;125623;1099;104214;-76
2021/04/26 10:03:45;;;;;;;4.07;2.37;;;;;;;11.71;51.47;100727.66;125666;1099;104175;-77
2021/04/26 10:06:16;;;;;;;3.73;2.33;;;;;;;11.78;51.43;100732.30;125702;1099;104228;-76
2021/04/26 10:08:47;;;;;;;4.33;2.87;;;;;;;11.85;51.20;100729.02;125586;1099;104169;-77
2021/04/26 10:11:17;;;;;;;3.60;2.53;;;;;;;12.10;51.33;100723.74;125559;1098;104262;-77
2021/04/26 10:13:48;;;;;;;3.70;2.50;;;;;;;12.27;50.22;100732.19;125614;1099;104214;-77
2021/04/26 10:16:24;;;;;;;6.10;2.70;;;;;;;12.44;50.39;100728.36;125626;1099;104184;-77
2021/04/26 10:19:00;;;;;;;7.73;2.87;;;;;;;12.52;50.79;100745.27;125585;1099;104645;-76
2021/04/26 10:21:34;;;;;;;6.47;2.70;;;;;;;12.66;50.06;100734.30;125552;1099;107060;-76
2021/04/26 10:24:22;;;;;;;7.73;3.10;;;;;;;12.68;49.84;100733.47;125554;1099;104319;-76
2021/04/26 10:27:00;;;;;;;7.15;2.90;;;;;;;12.71;50.14;100737.95;125529;1099;104589;-77
2021/04/26 10:29:32;;;;;;;8.57;3.00;;;;;;;12.73;49.97;100741.52;125563;1099;104913;-76
2021/04/26 10:32:15;;;;;;;6.00;2.73;;;;;;;12.90;49.88;100739.39;125572;1097;104237;-76
2021/04/26 10:35:09;;;;;;;4.43;2.87;;;;;;;12.84;48.30;100732.23;125580;1099;104494;-76
2021/04/26 10:37:43;;;;;;;6.20;3.00;;;;;;;12.86;49.03;100742.80;125586;1099;104293;-75
2021/04/26 10:40:17;;;;;;;5.80;2.50;;;;;;;12.99;48.83;100728.25;125544;1099;105550;-76
2021/04/26 10:42:55;;;;;;;3.37;2.40;;;;;;;13.06;48.28;100725.84;125694;1099;104165;-77
2021/04/26 10:45:30;;;;;;;4.03;2.53;;;;;;;13.02;48.10;100723.96;126099;1099;103548;-75
2021/04/26 10:48:15;;;;;;;4.10;2.63;;;;;;;12.85;44.21;100718.19;125529;1099;104328;-76
2021/04/26 10:51:20;;;;;;;6.07;2.80;;;;;;;12.65;44.86;100728.11;125663;1099;104185;-77
2021/04/26 10:54:00;;;;;;;9.00;3.17;;;;;;;12.48;47.39;100735.52;125623;1099;104283;-75
2021/04/26 10:56:48;;;;;;;;;;;;;;;12.46;47.12;100721.39;125670;1099;104229;-76
2021/04/26 10:59:32;;;;;;;7.53;3.00;;;;;;;12.38;47.42;100722.89;125327;1099;104169;-78
2021/04/26 11:02:04;;;;;;;9.80;3.23;;;;;;;12.50;47.52;100727.67;125668;1099;102765;-75
2021/04/26 11:05:25;;;;;;;10.47;3.40;;;;;;;12.42;47.44;100722.16;125820;1099;102506;-76
2021/04/26 11:08:33;;;;;;;9.48;3.30;;;;;;;12.36;46.73;100724.59;125801;1099;104166;-76
2021/04/26 11:11:34;;;;;;;5.60;2.75;;;;;;;12.62;47.27;100721.87;125828;1099;104213;-77
2021/04/26 11:14:08;;;;;;;8.00;2.93;;;;;;;12.66;46.14;100713.23;126168;1099;103016;-77
2021/04/26 11:16:53;;;;;;;10.45;3.20;;;;;;;12.72;46.70;100706.41;125736;1099;104166;-76
2021/04/26 11:19:56;;;;;;;6.40;3.10;;;;;;;12.80;44.78;100714.53;125670;1099;102960;-76
2021/04/26 11:22:40;;;;;;;5.23;3.20;;;;;;;12.79;45.57;100704.84;125097;1099;104153;-75
2021/04/26 11:25:10;;;;;;;6.85;2.83;;;;;;;12.95;45.99;100706.21;125599;1099;104156;-75
2021/04/26 11:27:54;;;;;;;5.43;2.87;;;;;;;13.14;46.10;100715.53;125639;1099;104238;-75
2021/04/26 11:30:31;;;;;;;4.40;3.17;;;;;;;13.10;45.70;100696.12;125490;1099;104236;-77
2021/04/26 11:33:10;;;;;;;8.70;3.30;;;;;;;13.18;45.84;100695.42;125656;1099;104291;-76
2021/04/26 11:36:12;;;;;;;8.13;3.47;;;;;;;13.24;44.84;100696.48;125700;1099;102820;-77
2021/04/26 11:38:49;;;;;;;7.40;3.70;;;;;;;13.44;44.29;100683.00;125627;1099;104288;-77
2021/04/26 11:41:20;;;;;;;6.70;3.20;;;;;;;13.79;44.91;100686.57;125755;1098;102131;-76
2021/04/26 11:44:20;;;;;;;10.83;4.00;;;;;;;14.07;44.72;100676.71;125605;1099;104171;-77
2021/04/26 11:47:17;;;;;;;9.43;3.37;;;;;;;14.48;44.02;100673.25;125524;1099;104162;-76
2021/04/26 11:49:48;;;;;;;10.43;3.90;;;;;;;14.77;45.05;100673.02;125585;1099;104159;-76
2021/04/26 11:52:20;;;;;;;12.13;3.87;;;;;;;15.06;44.90;100663.94;125704;1099;104214;-76
2021/04/26 11:54:51;;;;;;;5.57;3.10;;;;;;;15.13;43.57;100666.70;125570;1099;104153;-77